createdAt,value
2022-08-07T00:02:35.847Z,-0.15
2022-08-07T00:06:51.447Z,-0.14
2022-08-07T00:16:39.542Z,-0.15
2022-08-07T00:21:55.767Z,-0.15
2022-08-07T00:26:49.615Z,-0.15
2022-08-07T00:32:02.992Z,-0.15
2022-08-07T00:36:51.241Z,-0.15
2022-08-07T00:41:53.411Z,-0.15
2022-08-07T00:47:15.692Z,-0.15
2022-08-07T00:51:56.865Z,-0.15
2022-08-07T00:56:44.311Z,-0.15
2022-08-07T01:01:41.437Z,-0.15
2022-08-07T01:06:37.697Z,-0.15
2022-08-07T01:12:05.104Z,-0.15
2022-08-07T01:16:39.801Z,-0.15
2022-08-07T01:21:38.098Z,-0.15
2022-08-07T01:26:54.741Z,-0.15
2022-08-07T01:31:41.930Z,-0.16
2022-08-07T01:41:55.127Z,-0.15
2022-08-07T01:46:41.003Z,-0.15
2022-08-07T01:52:04.678Z,-0.16
2022-08-07T01:56:42.405Z,-0.16
2022-08-07T02:09:52.479Z,-0.15
2022-08-07T02:12:04.331Z,-0.15
2022-08-07T02:21:55.752Z,-0.15
2022-08-07T02:26:42.739Z,-0.15
2022-08-07T02:31:54.597Z,-0.15
2022-08-07T02:36:42.594Z,-0.15
2022-08-07T02:41:50.872Z,-0.15
2022-08-07T02:46:46.635Z,-0.11
2022-08-07T02:51:49.565Z,-0.15
2022-08-07T02:56:46.008Z,-0.15
2022-08-07T03:01:47.161Z,-0.15
2022-08-07T03:11:51.992Z,-0.15
2022-08-07T03:21:51.392Z,-0.13
2022-08-07T03:26:57.794Z,-0.12
2022-08-07T03:36:52.782Z,-0.09
2022-08-07T03:41:54.702Z,-0.07
2022-08-07T03:47:11.650Z,-0.04
2022-08-07T04:01:56.833Z,0.02
2022-08-07T04:06:57.498Z,0.05
2022-08-07T04:12:15.484Z,0.10
2022-08-07T04:16:59.081Z,0.16
2022-08-07T04:22:05.517Z,0.26
2022-08-07T04:27:00.445Z,0.29
2022-08-07T04:32:02.855Z,0.31
2022-08-07T04:37:01.993Z,0.36
2022-08-07T04:42:03.174Z,0.37
2022-08-07T04:47:08.756Z,0.41
2022-08-07T04:52:04.244Z,0.44
2022-08-07T04:58:08.812Z,0.45
2022-08-07T05:02:06.083Z,0.44
2022-08-07T05:07:09.750Z,0.43
2022-08-07T05:12:07.555Z,0.41
2022-08-07T05:17:11.771Z,0.40
2022-08-07T05:22:08.682Z,0.46
2022-08-07T05:27:14.418Z,0.42
2022-08-07T05:32:10.099Z,0.41
2022-08-07T05:37:10.973Z,0.40
2022-08-07T05:42:12.845Z,0.39
2022-08-07T05:47:17.955Z,0.38
2022-08-07T05:52:29.973Z,0.38
2022-08-07T05:57:13.901Z,0.37
2022-08-07T06:02:22.656Z,0.37
2022-08-07T06:07:22.853Z,0.37
2022-08-07T06:12:16.662Z,0.37
2022-08-07T06:17:17.107Z,0.37
2022-08-07T06:22:22.950Z,0.37
2022-08-07T06:27:44.650Z,0.38
2022-08-07T06:32:19.343Z,0.38
2022-08-07T06:37:20.500Z,0.40
2022-08-07T06:43:39.325Z,0.42
2022-08-07T06:47:22.014Z,0.43
2022-08-07T06:57:26.317Z,0.43
2022-08-07T07:07:58.720Z,0.43
2022-08-07T07:12:30.853Z,0.43
2022-08-07T07:18:02.503Z,0.43
2022-08-07T07:22:34.314Z,0.44
2022-08-07T07:32:27.941Z,0.45
2022-08-07T07:42:32.715Z,0.45
2022-08-07T07:47:29.897Z,0.45
2022-08-07T07:57:44.343Z,0.45
2022-08-07T08:03:09.213Z,0.45
2022-08-07T08:07:35.552Z,0.45
2022-08-07T08:17:56.825Z,0.45
2022-08-07T08:22:34.708Z,0.45
2022-08-07T08:27:35.357Z,0.44
2022-08-07T08:37:59.908Z,0.44
2022-08-07T08:41:56.727Z,0.44
2022-08-07T08:46:44.761Z,0.48
2022-08-07T08:51:50.012Z,0.43
2022-08-07T08:56:47.973Z,0.46
2022-08-07T09:01:49.362Z,0.48
2022-08-07T09:06:49.219Z,0.49
2022-08-07T09:11:50.683Z,0.53
2022-08-07T09:16:50.631Z,0.50
2022-08-07T09:21:58.451Z,0.53
2022-08-07T09:26:57.287Z,0.56
2022-08-07T09:31:52.478Z,0.59
2022-08-07T09:36:53.650Z,0.65
2022-08-07T09:42:04.153Z,0.63
2022-08-07T09:47:26.421Z,0.58
2022-08-07T09:56:56.018Z,0.61
2022-08-07T10:01:56.679Z,0.63
2022-08-07T10:06:57.812Z,0.69
2022-08-07T10:12:00.847Z,0.68
2022-08-07T10:16:59.460Z,0.71
2022-08-07T10:22:15.283Z,0.71
2022-08-07T10:27:00.239Z,0.74
2022-08-07T10:32:00.752Z,0.75
2022-08-07T10:37:03.860Z,0.72
2022-08-07T10:42:09.565Z,0.68
2022-08-07T10:47:05.741Z,0.83
2022-08-07T10:52:13.571Z,0.82
2022-08-07T10:57:07.434Z,0.85
2022-08-07T11:02:12.218Z,0.84
2022-08-07T11:07:15.281Z,0.81
2022-08-07T11:12:31.872Z,0.81
2022-08-07T11:17:23.031Z,0.85
2022-08-07T11:22:19.516Z,0.88
2022-08-07T11:27:13.928Z,0.74
2022-08-07T11:32:25.163Z,0.95
2022-08-07T11:46:44.086Z,0.72
2022-08-07T11:51:42.066Z,0.71
2022-08-07T11:56:40.225Z,0.71
2022-08-07T12:02:00.168Z,0.56
2022-08-07T12:06:51.876Z,0.56
2022-08-07T12:12:08.926Z,0.52
2022-08-07T12:16:44.741Z,0.54
2022-08-07T12:21:55.413Z,0.53
2022-08-07T12:26:47.090Z,0.57
2022-08-07T12:31:52.591Z,0.54
2022-08-07T12:36:49.317Z,0.58
2022-08-07T12:41:49.192Z,0.55
2022-08-07T12:46:48.900Z,0.58
2022-08-07T12:52:11.810Z,0.56
2022-08-07T12:56:55.163Z,0.56
2022-08-07T13:01:58.865Z,0.50
2022-08-07T13:07:00.760Z,0.55
2022-08-07T13:12:00.805Z,0.63
2022-08-07T13:16:55.656Z,0.61
2022-08-07T13:21:58.987Z,0.61
2022-08-07T13:26:57.214Z,0.48
2022-08-07T13:31:59.792Z,0.44
2022-08-07T13:36:58.463Z,0.43
2022-08-07T13:42:01.910Z,0.43
2022-08-07T13:47:02.680Z,0.52
2022-08-07T13:52:05.707Z,0.48
2022-08-07T13:57:04.903Z,0.32
2022-08-07T14:02:05.226Z,0.32
2022-08-07T14:07:05.355Z,0.30
2022-08-07T14:12:07.488Z,0.41
2022-08-07T14:17:13.285Z,0.45
2022-08-07T14:22:10.655Z,0.44
2022-08-07T14:27:16.354Z,0.45
2022-08-07T14:32:16.327Z,0.43
2022-08-07T14:37:16.217Z,0.43
2022-08-07T14:42:19.004Z,0.45
2022-08-07T14:47:14.501Z,0.46
2022-08-07T14:57:19.455Z,0.46
2022-08-07T15:07:17.882Z,0.46
2022-08-07T15:12:25.695Z,0.45
2022-08-07T15:17:22.701Z,0.45
2022-08-07T15:27:22.084Z,0.43
2022-08-07T15:32:39.323Z,0.42
2022-08-07T15:37:27.652Z,0.39
2022-08-07T15:42:42.820Z,0.41
2022-08-07T15:47:59.944Z,0.43
2022-08-07T15:52:29.939Z,0.46
2022-08-07T15:57:28.441Z,0.30
2022-08-07T16:02:26.931Z,0.27
2022-08-07T16:07:31.996Z,0.29
2022-08-07T16:12:33.931Z,0.33
2022-08-07T16:18:01.086Z,0.28
2022-08-07T16:22:35.964Z,0.25
2022-08-07T16:27:38.977Z,0.37
2022-08-07T16:32:34.454Z,0.26
2022-08-07T16:38:03.088Z,0.35
2022-08-07T16:47:51.025Z,0.34
2022-08-07T16:52:52.197Z,0.32
2022-08-07T16:58:01.270Z,0.30
2022-08-07T17:02:51.930Z,0.28
2022-08-07T17:07:51.831Z,0.28
2022-08-07T17:12:44.280Z,0.27
2022-08-07T17:17:47.307Z,0.26
2022-08-07T17:22:48.454Z,0.26
2022-08-07T17:27:50.886Z,0.24
2022-08-07T17:32:49.539Z,0.17
2022-08-07T17:38:05.349Z,0.16
2022-08-07T17:42:58.816Z,0.13
2022-08-07T17:47:53.124Z,0.11
2022-08-07T17:52:46.750Z,0.08
2022-08-07T17:57:56.791Z,0.07
2022-08-07T18:02:53.960Z,0.04
2022-08-07T18:07:56.127Z,0.03
2022-08-07T18:12:52.208Z,0.02
2022-08-07T18:18:33.331Z,0.01
2022-08-07T18:27:54.950Z,-0.04
2022-08-07T18:32:54.991Z,-0.07
2022-08-07T18:38:54.526Z,-0.09
2022-08-07T18:42:58.820Z,-0.10
2022-08-07T18:48:04.049Z,-0.12
2022-08-07T18:53:04.884Z,-0.13
2022-08-07T18:58:00.982Z,-0.13
2022-08-07T19:03:11.728Z,-0.14
2022-08-07T19:08:03.894Z,-0.14
2022-08-07T19:13:10.522Z,-0.15
2022-08-07T19:18:03.821Z,-0.15
2022-08-07T19:23:18.022Z,-0.15
2022-08-07T19:28:31.561Z,-0.14
2022-08-07T19:33:15.369Z,-0.15
2022-08-07T19:38:16.916Z,-0.15
2022-08-07T19:43:21.450Z,-0.15
2022-08-07T19:48:18.580Z,-0.15
2022-08-07T19:54:30.273Z,-0.15
2022-08-07T19:58:14.351Z,-0.15
2022-08-07T20:03:34.308Z,-0.15
2022-08-07T20:08:15.246Z,-0.15
2022-08-07T20:13:23.381Z,-0.15
2022-08-07T20:18:31.909Z,-0.15
2022-08-07T20:23:23.556Z,-0.15
2022-08-07T20:28:19.771Z,-0.15
2022-08-07T20:33:24.638Z,-0.15
2022-08-07T20:38:22.322Z,-0.15
2022-08-07T20:43:26.689Z,-0.15
2022-08-07T20:48:25.761Z,-0.15
2022-08-07T20:53:25.829Z,-0.15
2022-08-07T20:58:47.395Z,-0.15
2022-08-07T21:03:34.521Z,-0.15
2022-08-07T21:08:28.812Z,-0.15
2022-08-07T21:13:44.129Z,-0.15
2022-08-07T21:18:33.365Z,-0.15
2022-08-07T21:23:34.056Z,-0.15
2022-08-07T21:26:39.730Z,-0.15
2022-08-07T21:31:50.758Z,-0.15
2022-08-07T21:36:40.110Z,-0.15
2022-08-07T21:41:52.021Z,-0.15
2022-08-07T21:46:41.298Z,-0.15
2022-08-07T21:51:50.917Z,-0.15
2022-08-07T21:56:47.256Z,-0.15
2022-08-07T22:02:08.024Z,-0.15
2022-08-07T22:06:44.930Z,-0.15
2022-08-07T22:11:53.302Z,-0.15
2022-08-07T22:16:50.471Z,-0.15
2022-08-07T22:22:02.949Z,-0.15
2022-08-07T22:26:47.182Z,-0.15
2022-08-07T22:31:59.876Z,-0.15
2022-08-07T22:36:50.165Z,-0.15
2022-08-07T22:42:02.692Z,-0.15
2022-08-07T22:47:03.268Z,-0.15
2022-08-07T22:51:51.922Z,-0.15
2022-08-07T22:56:51.638Z,-0.15
2022-08-07T23:01:58.894Z,-0.15
2022-08-07T23:11:59.204Z,-0.15
2022-08-07T23:17:08.420Z,-0.15
2022-08-07T23:21:58.122Z,-0.15
2022-08-07T23:26:58.589Z,-0.15
2022-08-07T23:32:50.448Z,-0.15
2022-08-07T23:37:18.014Z,-0.15
2022-08-07T23:42:02.024Z,-0.15
2022-08-07T23:47:01.634Z,-0.15
2022-08-07T23:52:56.061Z,-0.15
2022-08-07T23:57:08.933Z,-0.15
